Aeroporto :
LOGIN :

Iscrizione | Disclaimer

   EN    FR    IT 

 










Sommario :    VFR   VFR Marginale   IFR   IFR Intensivo   IFR Molto Intensivo
Visibilità : 
Base nubi : 
>= 8 km
>= 3000ft
5 / 8 km
1000 / 3000 ft
1500m / 5 km
500 / 1000 ft
800 / 1500m
200 / 500 ft
< 800m
< 200 ft
Simboli :   Temporali  Nebbia  Neve Forte  Precipitazioni Forti  Vento > 20 kt
SIGMETs :   Varie  Temporali  Ghiacco  Turbolenza  Onda orograficha  Ceneri Vulcaniche






- Altitudine del aeroporto : 0 ft
- Codice IATA : QFR


LIRH - Frosinone Military

ULTIMO METAR :
  • 240855Z 12003KT 9999 SCT025 10/06 Q1007 RMK BKN SCT060 MON CIME INC NC VIS MIN 9999 WIND THR16 00000KT BLU

METARs OBSOLETI :
  • 240755Z 04005KT 6000 FEW025CB BKN030 08/06 Q1007
  • 240655Z 32006KT 3000 -TSRA BR SCT015CB BKN020 08/07 Q1007 RMK OVC MON CIME INC NC VIS MIN 3000 WIND THR16 33006KT YLO
  • 240636Z 24003KT 3000 -TSRA BR SCT015CB BKN020 08/07 Q1006 RMK OVC MON CIME INC NC VIS MIN 3000 WIND THR16 00000KT YLO
  • 240555Z 08004KT 4000 -RA BR SCT020CB BKN025 08/07 Q1006
  • 240455Z 12004KT 4000 BR FEW020CB BKN025 08/07 Q1006 RMK BKN MON CIME INC NC VIS MIN 4000 WIND THR16 15003KT GRN

TAF TAF LIRH
Valido dal 24 a 09 ore il 24 a 18 ore UTC


240800Z 2409/2418 18005KT 8000 FEW020CB BKN030
TEMPO 2409/2418 20010KT 3000 SHRA
PROB40
TEMPO 2411/2414 2000 TSRA SCT020CB



MetMap, La meteo Aeronautica in un colpo d'occhio ! - Copyright ORBIFLY Dicembre 2007 - Disclaimer

ORBIFLY MET'MAP TEAM :

Programmazione e sviluppo : Alexandra Zaïnal
Concezione : Baudouin d'Aumeries
Supporto tecnico e logistico : Manuel Goepfert
Aiuto : Marc-Olivier Méhu
Aiuto per la traduzione : Arnaldo La Scala




FONTI E CREDITI :

   NOAA